sensor_id;sensor_type;location;lat;lon;timestamp;pressure;altitude;pressure_sealevel;temperature;humidity
27729;BME280;15126;42.186;24.340;2023-04-26T00:02:27;98355.56;;;13.59;97.29
27729;BME280;15126;42.186;24.340;2023-04-26T00:04:54;98351.25;;;13.49;96.54
27729;BME280;15126;42.186;24.340;2023-04-26T00:07:23;98356.34;;;13.59;96.12
27729;BME280;15126;42.186;24.340;2023-04-26T00:09:50;98347.38;;;13.46;95.70
27729;BME280;15126;42.186;24.340;2023-04-26T00:12:17;98333.09;;;13.44;95.69
27729;BME280;15126;42.186;24.340;2023-04-26T00:14:44;98332.66;;;13.37;95.59
27729;BME280;15126;42.186;24.340;2023-04-26T00:17:11;98327.63;;;13.41;94.82
27729;BME280;15126;42.186;24.340;2023-04-26T00:19:39;98316.13;;;13.48;94.89
27729;BME280;15126;42.186;24.340;2023-04-26T00:22:06;98320.19;;;13.38;94.87
27729;BME280;15126;42.186;24.340;2023-04-26T00:24:33;98319.47;;;13.28;94.90
27729;BME280;15126;42.186;24.340;2023-04-26T00:27:00;98320.19;;;13.38;94.68
27729;BME280;15126;42.186;24.340;2023-04-26T00:29:29;98313.63;;;13.41;93.47
27729;BME280;15126;42.186;24.340;2023-04-26T00:31:56;98312.41;;;13.42;93.57
27729;BME280;15126;42.186;24.340;2023-04-26T00:34:23;98306.31;;;13.43;93.59
27729;BME280;15126;42.186;24.340;2023-04-26T00:36:51;98309.41;;;13.45;93.26
27729;BME280;15126;42.186;24.340;2023-04-26T00:39:18;98301.00;;;13.45;92.72
27729;BME280;15126;42.186;24.340;2023-04-26T00:41:46;98295.09;;;13.43;92.37
27729;BME280;15126;42.186;24.340;2023-04-26T00:44:14;98285.25;;;13.24;91.86
27729;BME280;15126;42.186;24.340;2023-04-26T00:46:40;98300.53;;;13.05;93.28
27729;BME280;15126;42.186;24.340;2023-04-26T00:49:07;98294.16;;;13.04;94.48
27729;BME280;15126;42.186;24.340;2023-04-26T00:51:36;98294.16;;;13.13;93.74
27729;BME280;15126;42.186;24.340;2023-04-26T00:54:05;98294.47;;;13.16;93.55
27729;BME280;15126;42.186;24.340;2023-04-26T00:56:32;98296.19;;;13.13;94.33
27729;BME280;15126;42.186;24.340;2023-04-26T00:58:59;98303.97;;;13.00;94.68
27729;BME280;15126;42.186;24.340;2023-04-26T01:01:26;98289.84;;;12.94;94.97
27729;BME280;15126;42.186;24.340;2023-04-26T01:03:53;98280.50;;;12.97;94.39
27729;BME280;15126;42.186;24.340;2023-04-26T01:06:21;98283.91;;;13.10;94.20
27729;BME280;15126;42.186;24.340;2023-04-26T01:08:49;98283.75;;;13.14;94.04
27729;BME280;15126;42.186;24.340;2023-04-26T01:11:20;98284.03;;;13.16;93.87
27729;BME280;15126;42.186;24.340;2023-04-26T01:13:49;98290.25;;;13.20;93.42
27729;BME280;15126;42.186;24.340;2023-04-26T01:16:18;98278.56;;;13.22;92.93
27729;BME280;15126;42.186;24.340;2023-04-26T01:18:49;98280.59;;;13.21;92.47
27729;BME280;15126;42.186;24.340;2023-04-26T01:21:18;98261.22;;;13.08;91.79
27729;BME280;15126;42.186;24.340;2023-04-26T01:23:47;98277.34;;;13.23;91.71
27729;BME280;15126;42.186;24.340;2023-04-26T01:26:15;98278.88;;;13.24;91.57
27729;BME280;15126;42.186;24.340;2023-04-26T01:28:42;98272.97;;;13.22;91.70
27729;BME280;15126;42.186;24.340;2023-04-26T01:31:11;98278.28;;;13.20;92.08
27729;BME280;15126;42.186;24.340;2023-04-26T01:33:38;98282.31;;;13.19;91.95
27729;BME280;15126;42.186;24.340;2023-04-26T01:36:07;98272.53;;;13.14;91.95
27729;BME280;15126;42.186;24.340;2023-04-26T01:38:34;98277.66;;;13.16;92.22
27729;BME280;15126;42.186;24.340;2023-04-26T01:41:02;98288.09;;;13.15;92.08
27729;BME280;15126;42.186;24.340;2023-04-26T01:43:29;98289.81;;;13.13;92.72
27729;BME280;15126;42.186;24.340;2023-04-26T01:45:56;98300.69;;;13.10;92.73
27729;BME280;15126;42.186;24.340;2023-04-26T01:48:23;98293.25;;;13.07;92.79
27729;BME280;15126;42.186;24.340;2023-04-26T01:50:49;98300.53;;;13.05;92.97
27729;BME280;15126;42.186;24.340;2023-04-26T01:53:16;98270.31;;;12.85;92.74
27729;BME280;15126;42.186;24.340;2023-04-26T01:55:43;98296.38;;;13.00;91.90
27729;BME280;15126;42.186;24.340;2023-04-26T01:58:11;98284.88;;;12.98;91.92
27729;BME280;15126;42.186;24.340;2023-04-26T02:00:38;98274.47;;;12.99;90.13
27729;BME280;15126;42.186;24.340;2023-04-26T02:03:05;98276.47;;;12.98;90.57
27729;BME280;15126;42.186;24.340;2023-04-26T02:05:32;98278.19;;;12.96;90.25
27729;BME280;15126;42.186;24.340;2023-04-26T02:07:58;98289.84;;;12.94;90.05
27729;BME280;15126;42.186;24.340;2023-04-26T02:10:25;98287.69;;;12.89;90.35
27729;BME280;15126;42.186;24.340;2023-04-26T02:12:52;98278.88;;;12.82;89.75
27729;BME280;15126;42.186;24.340;2023-04-26T02:15:20;98270.63;;;12.78;89.83
27729;BME280;15126;42.186;24.340;2023-04-26T02:17:47;98277.00;;;12.79;89.80
27729;BME280;15126;42.186;24.340;2023-04-26T02:20:14;98281.38;;;12.71;90.00
27729;BME280;15126;42.186;24.340;2023-04-26T02:22:40;98280.81;;;12.48;90.56
27729;BME280;15126;42.186;24.340;2023-04-26T02:25:08;98276.00;;;12.49;90.56
27729;BME280;15126;42.186;24.340;2023-04-26T02:27:36;98284.09;;;12.47;90.82
27729;BME280;15126;42.186;24.340;2023-04-26T02:30:03;98285.47;;;12.42;91.45
27729;BME280;15126;42.186;24.340;2023-04-26T02:32:31;98295.41;;;12.43;91.48
27729;BME280;15126;42.186;24.340;2023-04-26T02:34:58;98299.28;;;12.46;91.00
27729;BME280;15126;42.186;24.340;2023-04-26T02:37:25;98290.16;;;12.36;90.74
27729;BME280;15126;42.186;24.340;2023-04-26T02:39:52;98303.50;;;12.14;90.17
27729;BME280;15126;42.186;24.340;2023-04-26T02:42:18;98299.78;;;12.17;89.60
27729;BME280;15126;42.186;24.340;2023-04-26T02:44:45;98305.81;;;12.07;90.48
27729;BME280;15126;42.186;24.340;2023-04-26T02:47:12;98294.97;;;12.00;90.54
27729;BME280;15126;42.186;24.340;2023-04-26T02:49:40;98294.97;;;12.09;90.55
27729;BME280;15126;42.186;24.340;2023-04-26T02:52:07;98286.91;;;12.11;90.48
27729;BME280;15126;42.186;24.340;2023-04-26T02:54:34;98279.75;;;12.10;90.93
27729;BME280;15126;42.186;24.340;2023-04-26T02:57:00;98284.09;;;12.11;90.84
27729;BME280;15126;42.186;24.340;2023-04-26T02:59:28;98276.19;;;12.09;90.71
27729;BME280;15126;42.186;24.340;2023-04-26T03:01:55;98270.13;;;12.11;91.01
27729;BME280;15126;42.186;24.340;2023-04-26T03:04:22;98255.53;;;12.07;90.72
27729;BME280;15126;42.186;24.340;2023-04-26T03:06:50;98261.88;;;12.07;90.89
27729;BME280;15126;42.186;24.340;2023-04-26T03:09:17;98273.56;;;12.06;90.88
27729;BME280;15126;42.186;24.340;2023-04-26T03:11:44;98281.00;;;12.00;91.46
27729;BME280;15126;42.186;24.340;2023-04-26T03:14:11;98280.97;;;11.90;91.21
27729;BME280;15126;42.186;24.340;2023-04-26T03:16:40;98272.00;;;11.86;90.83
27729;BME280;15126;42.186;24.340;2023-04-26T03:19:07;98288.38;;;11.66;92.81
27729;BME280;15126;42.186;24.340;2023-04-26T03:21:34;98289.66;;;11.74;92.71
27729;BME280;15126;42.186;24.340;2023-04-26T03:24:03;98294.28;;;11.68;92.85
27729;BME280;15126;42.186;24.340;2023-04-26T03:26:29;98286.13;;;11.74;92.73
27729;BME280;15126;42.186;24.340;2023-04-26T03:28:56;98278.31;;;11.69;92.90
27729;BME280;15126;42.186;24.340;2023-04-26T03:31:23;98259.66;;;11.48;93.27
27729;BME280;15126;42.186;24.340;2023-04-26T03:33:50;98289.94;;;11.67;93.22
27729;BME280;15126;42.186;24.340;2023-04-26T03:36:17;98298.97;;;11.71;93.13
27729;BME280;15126;42.186;24.340;2023-04-26T03:38:44;98294.28;;;11.59;93.96
27729;BME280;15126;42.186;24.340;2023-04-26T03:41:12;98299.03;;;11.41;95.36
27729;BME280;15126;42.186;24.340;2023-04-26T03:43:39;98305.88;;;11.49;95.04
27729;BME280;15126;42.186;24.340;2023-04-26T03:46:05;98310.94;;;11.32;95.77
27729;BME280;15126;42.186;24.340;2023-04-26T03:48:32;98306.88;;;11.24;95.91
27729;BME280;15126;42.186;24.340;2023-04-26T03:51:00;98303.81;;;11.31;96.05
27729;BME280;15126;42.186;24.340;2023-04-26T03:53:27;98295.75;;;11.33;96.03
27729;BME280;15126;42.186;24.340;2023-04-26T03:55:53;98278.41;;;11.38;95.61
27729;BME280;15126;42.186;24.340;2023-04-26T03:58:22;98305.13;;;11.57;95.55
27729;BME280;15126;42.186;24.340;2023-04-26T04:00:49;98296.75;;;11.66;95.62
27729;BME280;15126;42.186;24.340;2023-04-26T04:03:15;98299.75;;;11.72;95.85
27729;BME280;15126;42.186;24.340;2023-04-26T04:05:42;98303.16;;;11.85;95.04
27729;BME280;15126;42.186;24.340;2023-04-26T04:08:09;98310.47;;;11.91;93.86
27729;BME280;15126;42.186;24.340;2023-04-26T04:10:36;98305.81;;;11.88;94.01
27729;BME280;15126;42.186;24.340;2023-04-26T04:13:03;98304.88;;;11.73;94.38
27729;BME280;15126;42.186;24.340;2023-04-26T04:15:31;98308.72;;;11.67;94.64
27729;BME280;15126;42.186;24.340;2023-04-26T04:17:57;98311.09;;;11.77;94.87
27729;BME280;15126;42.186;24.340;2023-04-26T04:20:24;98308.63;;;12.07;94.28
27729;BME280;15126;42.186;24.340;2023-04-26T04:22:51;98317.78;;;12.43;92.18
27729;BME280;15126;42.186;24.340;2023-04-26T04:25:18;98311.94;;;12.92;90.21
27729;BME280;15126;42.186;24.340;2023-04-26T04:27:47;98317.38;;;13.38;87.34
27729;BME280;15126;42.186;24.340;2023-04-26T04:30:14;98320.75;;;13.51;83.91
27729;BME280;15126;42.186;24.340;2023-04-26T04:32:42;98318.75;;;13.75;83.94
27729;BME280;15126;42.186;24.340;2023-04-26T04:35:11;98323.16;;;14.14;83.59
27729;BME280;15126;42.186;24.340;2023-04-26T04:37:38;98329.44;;;14.48;81.60
27729;BME280;15126;42.186;24.340;2023-04-26T04:40:06;98327.16;;;14.75;80.83
27729;BME280;15126;42.186;24.340;2023-04-26T04:42:35;98332.19;;;15.01;77.71
27729;BME280;15126;42.186;24.340;2023-04-26T04:45:03;98333.75;;;15.16;77.57
27729;BME280;15126;42.186;24.340;2023-04-26T04:47:30;98329.06;;;15.28;78.27
27729;BME280;15126;42.186;24.340;2023-04-26T04:49:59;98338.72;;;15.41;77.48
27729;BME280;15126;42.186;24.340;2023-04-26T04:52:26;98330.44;;;15.32;77.16
27729;BME280;15126;42.186;24.340;2023-04-26T04:54:53;98332.00;;;15.19;77.06
27729;BME280;15126;42.186;24.340;2023-04-26T04:57:20;98329.66;;;14.73;76.36
27729;BME280;15126;42.186;24.340;2023-04-26T04:59:47;98325.50;;;14.69;76.88
27729;BME280;15126;42.186;24.340;2023-04-26T05:02:13;98329.47;;;14.77;77.65
27729;BME280;15126;42.186;24.340;2023-04-26T05:04:40;98320.28;;;14.76;78.93
27729;BME280;15126;42.186;24.340;2023-04-26T05:07:08;98316.69;;;14.76;77.85
27729;BME280;15126;42.186;24.340;2023-04-26T05:09:35;98319.19;;;14.45;78.99
27729;BME280;15126;42.186;24.340;2023-04-26T05:12:03;98308.53;;;14.49;80.13
27729;BME280;15126;42.186;24.340;2023-04-26T05:14:31;98300.13;;;14.49;81.68
27729;BME280;15126;42.186;24.340;2023-04-26T05:16:57;98306.03;;;14.51;79.20
27729;BME280;15126;42.186;24.340;2023-04-26T05:19:24;98302.34;;;14.45;80.34
27729;BME280;15126;42.186;24.340;2023-04-26T05:21:51;98289.78;;;14.55;81.31
27729;BME280;15126;42.186;24.340;2023-04-26T05:24:19;98293.75;;;14.63;81.50
27729;BME280;15126;42.186;24.340;2023-04-26T05:26:46;98291.16;;;14.88;79.91
27729;BME280;15126;42.186;24.340;2023-04-26T05:29:13;98262.91;;;14.77;78.23
27729;BME280;15126;42.186;24.340;2023-04-26T05:31:39;98294.72;;;15.18;78.08
27729;BME280;15126;42.186;24.340;2023-04-26T05:34:06;98296.31;;;15.25;79.11
27729;BME280;15126;42.186;24.340;2023-04-26T05:36:33;98308.28;;;15.05;76.52
27729;BME280;15126;42.186;24.340;2023-04-26T05:39:00;98309.72;;;15.15;79.79
27729;BME280;15126;42.186;24.340;2023-04-26T05:41:28;98315.75;;;15.08;78.61
27729;BME280;15126;42.186;24.340;2023-04-26T05:43:55;98307.78;;;15.07;79.10
27729;BME280;15126;42.186;24.340;2023-04-26T05:46:22;98308.56;;;15.07;79.09
27729;BME280;15126;42.186;24.340;2023-04-26T05:48:49;98311.47;;;14.98;79.65
27729;BME280;15126;42.186;24.340;2023-04-26T05:51:16;98303.34;;;14.85;80.95
27729;BME280;15126;42.186;24.340;2023-04-26T05:53:43;98306.53;;;14.93;79.85
27729;BME280;15126;42.186;24.340;2023-04-26T05:56:09;98304.03;;;14.80;78.87
27729;BME280;15126;42.186;24.340;2023-04-26T05:58:38;98304.72;;;14.75;79.46
27729;BME280;15126;42.186;24.340;2023-04-26T06:01:05;98308.00;;;14.74;79.50
27729;BME280;15126;42.186;24.340;2023-04-26T06:03:32;98315.44;;;14.48;78.25
27729;BME280;15126;42.186;24.340;2023-04-26T06:05:59;98308.47;;;14.58;81.43
27729;BME280;15126;42.186;24.340;2023-04-26T06:08:26;98308.56;;;14.63;78.36
27729;BME280;15126;42.186;24.340;2023-04-26T06:10:53;98312.16;;;14.64;77.78
27729;BME280;15126;42.186;24.340;2023-04-26T06:13:20;98297.31;;;14.49;79.67
27729;BME280;15126;42.186;24.340;2023-04-26T06:15:48;98307.97;;;14.45;78.12
27729;BME280;15126;42.186;24.340;2023-04-26T06:18:14;98307.38;;;14.41;79.16
27729;BME280;15126;42.186;24.340;2023-04-26T06:20:41;98303.91;;;14.46;80.33
27729;BME280;15126;42.186;24.340;2023-04-26T06:23:08;98305.47;;;14.61;81.24
27729;BME280;15126;42.186;24.340;2023-04-26T06:25:35;98300.84;;;14.73;80.07
27729;BME280;15126;42.186;24.340;2023-04-26T06:28:02;98302.09;;;14.86;80.87
27729;BME280;15126;42.186;24.340;2023-04-26T06:30:29;98302.34;;;15.03;79.83
27729;BME280;15126;42.186;24.340;2023-04-26T06:32:57;98292.09;;;15.15;77.19
27729;BME280;15126;42.186;24.340;2023-04-26T06:35:25;98297.69;;;15.29;77.54
27729;BME280;15126;42.186;24.340;2023-04-26T06:37:52;98300.25;;;15.62;76.55
27729;BME280;15126;42.186;24.340;2023-04-26T06:40:18;98294.63;;;15.82;75.71
27729;BME280;15126;42.186;24.340;2023-04-26T06:42:45;98297.75;;;16.04;77.13
27729;BME280;15126;42.186;24.340;2023-04-26T06:45:13;98299.50;;;16.02;73.41
27729;BME280;15126;42.186;24.340;2023-04-26T06:47:39;98298.16;;;16.18;72.28
27729;BME280;15126;42.186;24.340;2023-04-26T06:50:09;98302.16;;;16.31;72.18
27729;BME280;15126;42.186;24.340;2023-04-26T06:52:36;98299.22;;;16.00;70.92
27729;BME280;15126;42.186;24.340;2023-04-26T06:55:03;98304.13;;;15.85;69.98
27729;BME280;15126;42.186;24.340;2023-04-26T06:57:30;98295.78;;;16.11;74.54
27729;BME280;15126;42.186;24.340;2023-04-26T06:59:57;98299.66;;;16.39;72.02
27729;BME280;15126;42.186;24.340;2023-04-26T07:02:24;98299.22;;;16.66;73.45
27729;BME280;15126;42.186;24.340;2023-04-26T07:04:51;98310.16;;;16.84;71.00
27729;BME280;15126;42.186;24.340;2023-04-26T07:07:19;98303.81;;;16.89;69.50
27729;BME280;15126;42.186;24.340;2023-04-26T07:09:46;98303.03;;;16.89;69.89
27729;BME280;15126;42.186;24.340;2023-04-26T07:12:13;98312.53;;;16.65;69.17
27729;BME280;15126;42.186;24.340;2023-04-26T07:14:40;98307.94;;;16.94;69.96
27729;BME280;15126;42.186;24.340;2023-04-26T07:17:07;98303.97;;;16.80;66.36
27729;BME280;15126;42.186;24.340;2023-04-26T07:19:34;98281.75;;;16.88;71.72
27729;BME280;15126;42.186;24.340;2023-04-26T07:22:01;98300.88;;;17.04;66.88
27729;BME280;15126;42.186;24.340;2023-04-26T07:24:32;98295.94;;;16.67;63.81
27729;BME280;15126;42.186;24.340;2023-04-26T07:26:59;98292.94;;;16.77;67.87
27729;BME280;15126;42.186;24.340;2023-04-26T07:29:26;98294.16;;;16.96;67.45
27729;BME280;15126;42.186;24.340;2023-04-26T07:31:53;98289.75;;;17.26;72.96
27729;BME280;15126;42.186;24.340;2023-04-26T07:34:21;98298.25;;;17.63;64.95
27729;BME280;15126;42.186;24.340;2023-04-26T07:36:48;98292.88;;;18.07;70.29
27729;BME280;15126;42.186;24.340;2023-04-26T07:39:14;98269.31;;;18.27;62.85
27729;BME280;15126;42.186;24.340;2023-04-26T07:41:43;98287.69;;;18.76;59.80
27729;BME280;15126;42.186;24.340;2023-04-26T07:44:09;98289.50;;;18.90;61.90
27729;BME280;15126;42.186;24.340;2023-04-26T07:46:36;98291.81;;;19.08;59.56
27729;BME280;15126;42.186;24.340;2023-04-26T07:49:03;98290.28;;;19.24;59.11
27729;BME280;15126;42.186;24.340;2023-04-26T07:51:30;98290.53;;;19.26;58.46
27729;BME280;15126;42.186;24.340;2023-04-26T07:53:57;98288.50;;;19.43;55.79
27729;BME280;15126;42.186;24.340;2023-04-26T07:56:23;98299.53;;;19.35;56.61
27729;BME280;15126;42.186;24.340;2023-04-26T07:58:52;98290.03;;;19.27;58.00
27729;BME280;15126;42.186;24.340;2023-04-26T08:01:18;98289.78;;;19.09;55.37
27729;BME280;15126;42.186;24.340;2023-04-26T08:03:45;98282.06;;;19.09;57.62
27729;BME280;15126;42.186;24.340;2023-04-26T08:06:13;98290.53;;;19.26;57.58
27729;BME280;15126;42.186;24.340;2023-04-26T08:08:40;98280.25;;;19.06;57.25
27729;BME280;15126;42.186;24.340;2023-04-26T08:11:09;98286.69;;;19.12;61.39
27729;BME280;15126;42.186;24.340;2023-04-26T08:13:36;98283.88;;;19.40;59.99
27729;BME280;15126;42.186;24.340;2023-04-26T08:16:05;98274.59;;;19.62;55.90
27729;BME280;15126;42.186;24.340;2023-04-26T08:18:31;98281.75;;;19.68;56.44
27729;BME280;15126;42.186;24.340;2023-04-26T08:20:59;98279.88;;;19.98;57.40
27729;BME280;15126;42.186;24.340;2023-04-26T08:23:25;98272.91;;;20.05;55.19
27729;BME280;15126;42.186;24.340;2023-04-26T08:25:52;98273.72;;;19.94;55.19
27729;BME280;15126;42.186;24.340;2023-04-26T08:28:19;98272.94;;;19.99;56.60
27729;BME280;15126;42.186;24.340;2023-04-26T08:30:46;98273.16;;;20.07;59.52
27729;BME280;15126;42.186;24.340;2023-04-26T08:33:14;98266.91;;;20.31;54.09
27729;BME280;15126;42.186;24.340;2023-04-26T08:35:43;98269.06;;;20.60;56.16
27729;BME280;15126;42.186;24.340;2023-04-26T08:38:10;98256.28;;;20.83;55.84
27729;BME280;15126;42.186;24.340;2023-04-26T08:40:37;98265.53;;;20.89;50.17
27729;BME280;15126;42.186;24.340;2023-04-26T08:43:04;98247.78;;;20.83;48.29
27729;BME280;15126;42.186;24.340;2023-04-26T08:45:33;98255.00;;;20.84;50.44
27729;BME280;15126;42.186;24.340;2023-04-26T08:48:02;98266.34;;;20.43;50.59
27729;BME280;15126;42.186;24.340;2023-04-26T08:50:33;98259.28;;;20.03;53.98
27729;BME280;15126;42.186;24.340;2023-04-26T08:53:02;98264.09;;;20.19;53.82
27729;BME280;15126;42.186;24.340;2023-04-26T08:55:29;98267.97;;;20.16;54.09
27729;BME280;15126;42.186;24.340;2023-04-26T08:57:56;98262.50;;;20.41;53.01
27729;BME280;15126;42.186;24.340;2023-04-26T09:00:23;98251.91;;;20.41;51.16
27729;BME280;15126;42.186;24.340;2023-04-26T09:02:51;98258.72;;;20.16;51.74
27729;BME280;15126;42.186;24.340;2023-04-26T09:05:18;98258.53;;;19.97;50.87
27729;BME280;15126;42.186;24.340;2023-04-26T09:07:50;98256.94;;;20.07;55.25
27729;BME280;15126;42.186;24.340;2023-04-26T09:10:19;98264.47;;;19.94;52.00
27729;BME280;15126;42.186;24.340;2023-04-26T09:12:46;98270.25;;;19.38;49.71
27729;BME280;15126;42.186;24.340;2023-04-26T09:15:16;98278.47;;;19.42;50.68
27729;BME280;15126;42.186;24.340;2023-04-26T09:17:43;98274.63;;;19.39;50.61
27729;BME280;15126;42.186;24.340;2023-04-26T09:20:22;98278.22;;;19.56;50.56
27729;BME280;15126;42.186;24.340;2023-04-26T09:22:51;98273.56;;;19.70;51.78
27729;BME280;15126;42.186;24.340;2023-04-26T09:25:26;98273.06;;;19.55;50.76
27729;BME280;15126;42.186;24.340;2023-04-26T09:27:53;98276.16;;;19.46;51.52
27729;BME280;15126;42.186;24.340;2023-04-26T09:30:21;98269.19;;;19.30;51.31
27729;BME280;15126;42.186;24.340;2023-04-26T09:32:50;98279.25;;;19.42;50.12
27729;BME280;15126;42.186;24.340;2023-04-26T09:35:29;98280.00;;;19.26;49.98
27729;BME280;15126;42.186;24.340;2023-04-26T09:37:59;98274.09;;;19.52;52.48
27729;BME280;15126;42.186;24.340;2023-04-26T09:40:27;98271.28;;;18.96;50.21
27729;BME280;15126;42.186;24.340;2023-04-26T09:42:59;98283.63;;;19.16;52.78
27729;BME280;15126;42.186;24.340;2023-04-26T09:45:27;98281.53;;;19.16;51.63
27729;BME280;15126;42.186;24.340;2023-04-26T09:47:54;98283.09;;;19.34;52.33
27729;BME280;15126;42.186;24.340;2023-04-26T09:50:30;98280.50;;;19.36;54.71
27729;BME280;15126;42.186;24.340;2023-04-26T09:52:58;98278.47;;;19.42;52.79
27729;BME280;15126;42.186;24.340;2023-04-26T09:55:27;98284.91;;;19.15;53.46
27729;BME280;15126;42.186;24.340;2023-04-26T09:57:54;98276.41;;;19.26;52.16
27729;BME280;15126;42.186;24.340;2023-04-26T10:00:23;98276.66;;;19.33;56.64
27729;BME280;15126;42.186;24.340;2023-04-26T10:02:51;98280.50;;;19.14;54.15
27729;BME280;15126;42.186;24.340;2023-04-26T10:05:19;98276.41;;;19.31;54.34
27729;BME280;15126;42.186;24.340;2023-04-26T10:07:47;98280.25;;;19.00;54.03
27729;BME280;15126;42.186;24.340;2023-04-26T10:10:15;98268.97;;;19.12;53.86
27729;BME280;15126;42.186;24.340;2023-04-26T10:12:43;98264.06;;;18.90;53.79
27729;BME280;15126;42.186;24.340;2023-04-26T10:15:10;98262.03;;;19.01;55.03
27729;BME280;15126;42.186;24.340;2023-04-26T10:17:37;98255.59;;;19.18;58.09
27729;BME280;15126;42.186;24.340;2023-04-26T10:20:09;98253.53;;;19.29;56.14
27729;BME280;15126;42.186;24.340;2023-04-26T10:22:41;98252.25;;;19.25;53.69
27729;BME280;15126;42.186;24.340;2023-04-26T10:25:10;98238.88;;;19.20;55.76
27729;BME280;15126;42.186;24.340;2023-04-26T10:27:49;98234.50;;;19.35;55.50
27729;BME280;15126;42.186;24.340;2023-04-26T10:30:19;98242.19;;;19.57;51.14
27729;BME280;15126;42.186;24.340;2023-04-26T10:33:16;98241.69;;;19.58;53.31
27729;BME280;15126;42.186;24.340;2023-04-26T10:36:13;98232.19;;;19.45;53.54
27729;BME280;15126;42.186;24.340;2023-04-26T10:38:41;98248.13;;;19.48;51.80
27729;BME280;15126;42.186;24.340;2023-04-26T10:41:31;98241.69;;;19.58;53.01
27729;BME280;15126;42.186;24.340;2023-04-26T10:47:06;98252.47;;;19.60;49.79
27729;BME280;15126;42.186;24.340;2023-04-26T10:49:43;98248.63;;;19.52;49.10
27729;BME280;15126;42.186;24.340;2023-04-26T10:52:12;98241.97;;;19.38;49.39
27729;BME280;15126;42.186;24.340;2023-04-26T10:54:54;98247.88;;;19.46;49.34
27729;BME280;15126;42.186;24.340;2023-04-26T10:57:23;98244.28;;;19.51;48.76
27729;BME280;15126;42.186;24.340;2023-04-26T11:00:32;98240.16;;;19.52;50.75
27729;BME280;15126;42.186;24.340;2023-04-26T11:03:03;98244.53;;;18.97;48.24
27729;BME280;15126;42.186;24.340;2023-04-26T11:05:50;98254.31;;;18.80;48.56
27729;BME280;15126;42.186;24.340;2023-04-26T11:08:18;98250.44;;;18.55;48.18
27729;BME280;15126;42.186;24.340;2023-04-26T11:10:50;98252.38;;;18.27;48.07
27729;BME280;15126;42.186;24.340;2023-04-26T11:13:18;98260.06;;;18.21;50.90
27729;BME280;15126;42.186;24.340;2023-04-26T11:15:51;98248.25;;;18.17;51.87
27729;BME280;15126;42.186;24.340;2023-04-26T11:18:19;98256.84;;;17.85;50.74
27729;BME280;15126;42.186;24.340;2023-04-26T11:20:46;98255.38;;;18.01;49.74
27729;BME280;15126;42.186;24.340;2023-04-26T11:23:13;98246.38;;;17.97;51.15
27729;BME280;15126;42.186;24.340;2023-04-26T11:25:40;98262.56;;;18.02;49.97
27729;BME280;15126;42.186;24.340;2023-04-26T11:28:06;98268.41;;;17.88;50.31
27729;BME280;15126;42.186;24.340;2023-04-26T11:30:33;98260.88;;;17.73;48.25
27729;BME280;15126;42.186;24.340;2023-04-26T11:33:02;98263.22;;;17.80;48.89
27729;BME280;15126;42.186;24.340;2023-04-26T11:35:32;98266.53;;;17.73;49.21
27729;BME280;15126;42.186;24.340;2023-04-26T11:38:00;98257.53;;;17.69;50.44
27729;BME280;15126;42.186;24.340;2023-04-26T11:40:30;98264.19;;;17.72;48.67
27729;BME280;15126;42.186;24.340;2023-04-26T11:43:00;98257.84;;;17.77;49.46
27729;BME280;15126;42.186;24.340;2023-04-26T11:45:27;98258.13;;;17.84;47.76
27729;BME280;15126;42.186;24.340;2023-04-26T11:47:55;98251.63;;;17.67;47.43
27729;BME280;15126;42.186;24.340;2023-04-26T11:50:24;98255.69;;;17.55;47.55
27729;BME280;15126;42.186;24.340;2023-04-26T11:52:55;98237.56;;;17.31;46.58
27729;BME280;15126;42.186;24.340;2023-04-26T11:55:23;98245.38;;;17.52;46.74
27729;BME280;15126;42.186;24.340;2023-04-26T11:57:50;98245.22;;;17.67;48.37
27729;BME280;15126;42.186;24.340;2023-04-26T12:00:18;98243.19;;;17.73;49.28
27729;BME280;15126;42.186;24.340;2023-04-26T12:02:46;98237.25;;;17.65;47.13
27729;BME280;15126;42.186;24.340;2023-04-26T12:05:28;98244.50;;;17.77;47.01
27729;BME280;15126;42.186;24.340;2023-04-26T12:07:56;98245.78;;;17.76;47.62
27729;BME280;15126;42.186;24.340;2023-04-26T12:10:24;98236.41;;;18.02;49.67
27729;BME280;15126;42.186;24.340;2023-04-26T12:12:53;98235.91;;;18.09;47.86
27729;BME280;15126;42.186;24.340;2023-04-26T12:15:24;98247.19;;;18.09;49.33
27729;BME280;15126;42.186;24.340;2023-04-26T12:17:55;98250.78;;;18.09;48.81
27729;BME280;15126;42.186;24.340;2023-04-26T12:20:34;98239.22;;;18.02;49.26
27729;BME280;15126;42.186;24.340;2023-04-26T12:23:05;98241.56;;;18.14;49.35
27729;BME280;15126;42.186;24.340;2023-04-26T12:25:32;98232.59;;;18.16;49.62
27729;BME280;15126;42.186;24.340;2023-04-26T12:28:00;98231.31;;;18.17;50.20
27729;BME280;15126;42.186;24.340;2023-04-26T12:30:27;98239.75;;;18.06;50.61
27729;BME280;15126;42.186;24.340;2023-04-26T12:32:54;98220.81;;;18.17;52.89
27729;BME280;15126;42.186;24.340;2023-04-26T12:35:22;98231.78;;;17.99;51.44
27729;BME280;15126;42.186;24.340;2023-04-26T12:37:50;98229.41;;;17.86;52.90
27729;BME280;15126;42.186;24.340;2023-04-26T12:40:18;98239.50;;;17.56;51.27
27729;BME280;15126;42.186;24.340;2023-04-26T12:42:46;98238.66;;;17.44;51.33
27729;BME280;15126;42.186;24.340;2023-04-26T12:45:14;98245.47;;;17.26;50.56
27729;BME280;15126;42.186;24.340;2023-04-26T12:47:40;98242.66;;;17.32;50.11
27729;BME280;15126;42.186;24.340;2023-04-26T12:50:08;98241.28;;;17.16;49.39
27729;BME280;15126;42.186;24.340;2023-04-26T12:52:37;98240.13;;;17.34;52.27
27729;BME280;15126;42.186;24.340;2023-04-26T12:55:06;98250.53;;;17.17;50.20
27729;BME280;15126;42.186;24.340;2023-04-26T12:57:33;98251.97;;;17.07;50.88
27729;BME280;15126;42.186;24.340;2023-04-26T13:00:00;98237.44;;;17.14;51.41